Latest Weather Observations for Mandora

IDW60801

Issued at 4:02 pm WST Tuesday 28 July 2015 (issued every 30 minutes, with the page automatically refreshed every 10 minutes)

About weather observations | Map of weather stations | Latest weather observations for WA | Other Formats
Station Details ID: 004019 Name: MANDORA Lat: -19.74 Lon: 120.84 Height: 7.5 m
Data from the previous 72 hours. | See also: Recent months at Mandora
Date/Time
WST
Temp
°C
App
Temp
°C
Dew
Point
Rel
Hum
%
Delta-T
°C
Wind Press
QNH
hPa
Press
MSL
hPa
Rain
since 9 am
mm
Dir
 
Spd
km/h
Gust
km/h
Spd
kts
Gust
kts
28/04:00pm 31.7 27.6 8.0 23 13.1 N 19 26 10 14 1017.0 - 0.0
28/03:30pm 32.7 28.5 8.2 22 13.6 N 20 26 11 14 1017.0 - 0.0
28/03:00pm 33.5 29.5 8.2 21 14.1 N 19 28 10 15 1016.9 1016.9 0.0
28/02:30pm 33.5 29.1 8.9 22 13.9 N 22 32 12 17 1017.1 - 0.0
28/02:00pm 33.7 29.0 7.6 20 14.5 N 22 30 12 16 1017.4 - 0.0
28/01:30pm 33.8 29.6 8.4 21 14.3 NNE 20 33 11 18 1017.7 - 0.0
28/01:00pm 34.1 30.8 8.0 20 14.6 ENE 15 24 8 13 1018.1 - 0.0
28/12:30pm 33.4 29.9 7.4 20 14.3 ENE 15 28 8 15 1018.6 - 0.0
28/12:00pm 33.0 29.6 7.8 21 13.9 ENE 15 28 8 15 1019.2 1019.2 0.0
28/11:30am 32.6 28.8 7.4 21 13.8 ENE 17 30 9 16 1019.7 - 0.0
28/11:00am 31.5 27.2 7.2 22 13.2 E 19 32 10 17 1020.2 - 0.0
28/10:30am 29.9 25.6 7.2 24 12.2 E 19 33 10 18 1020.5 - 0.0
28/10:00am 29.1 24.7 7.6 26 11.6 E 20 39 11 21 1020.9 - 0.0
28/09:30am 27.9 23.1 7.2 27 11.0 E 22 33 12 18 1021.0 - 0.0
28/09:00am 26.8 21.5 6.8 28 10.5 E 24 37 13 20 1021.3 1021.3 0.0
28/08:30am 25.4 20.8 6.6 30 9.8 E 20 35 11 19 1021.3 - 0.0
28/08:00am 23.3 19.8 7.4 36 8.3 ESE 15 26 8 14 1021.0 - 0.0
28/07:30am 20.6 17.3 7.9 44 6.6 SE 15 22 8 12 1020.8 - 0.0
28/07:00am 19.5 16.5 7.9 47 6.0 SE 13 20 7 11 1020.6 - 0.0
28/06:30am 19.2 16.2 7.6 47 5.9 SE 13 22 7 12 1020.4 - 0.0
28/06:00am 19.7 16.3 7.8 46 6.1 SE 15 22 8 12 1019.9 1019.9 0.0
28/05:30am 19.8 16.4 7.5 45 6.3 SE 15 24 8 13 1019.5 - 0.0
28/05:00am 19.8 16.8 7.9 46 6.1 SE 13 20 7 11 1019.1 - 0.0
28/04:30am 19.9 16.9 7.6 45 6.3 SE 13 19 7 10 1019.1 - 0.0
28/04:00am 20.2 17.2 7.9 45 6.4 SE 13 20 7 11 1019.1 - 0.0
28/03:30am 20.7 17.8 8.0 44 6.6 SE 13 20 7 11 1019.1 - 0.0
28/03:00am 20.7 17.8 8.0 44 6.6 SE 13 17 7 9 1019.2 1019.2 0.0
28/02:30am 21.2 18.3 8.1 43 6.8 SE 13 19 7 10 1019.2 - 0.0
28/02:00am 21.7 18.4 7.9 41 7.2 SE 15 20 8 11 1019.4 - 0.0
28/01:30am 22.2 19.3 8.0 40 7.4 SE 13 22 7 12 1019.5 - 0.0
28/01:00am 23.0 19.3 7.9 38 7.9 SE 17 26 9 14 1019.7 - 0.0
28/12:30am 23.2 19.4 7.7 37 8.1 SE 17 28 9 15 1019.7 - 0.0
28/12:00am 23.1 19.8 8.0 38 7.9 SE 15 22 8 12 1019.8 1019.8 0.0
 
Date/Time
WST
Temp
°C
App
Temp
°C
Dew
Point
Rel
Hum
%
Delta-T
°C
Wind Press
QNH
hPa
Press
MSL
hPa
Rain
since 9 am
mm
Dir
 
Spd
km/h
Gust
km/h
Spd
kts
Gust
kts
27/11:30pm 23.3 20.0 8.2 38 8.0 SE 15 26 8 14 1019.8 - 0.0
27/11:00pm 23.8 20.9 8.2 37 8.3 SSE 13 24 7 13 1020.1 - 0.0
27/10:30pm 22.6 19.7 8.3 40 7.5 SSE 13 17 7 9 1020.1 - 0.0
27/10:00pm 21.7 18.8 8.2 42 7.1 SSE 13 17 7 9 1019.9 - 0.0
27/09:30pm 21.8 18.9 8.0 41 7.2 SSE 13 17 7 9 1019.9 - 0.0
27/09:00pm 22.1 19.1 7.9 40 7.4 SSE 13 15 7 8 1019.6 1019.6 0.0
27/08:30pm 22.6 19.6 7.6 38 7.8 SSE 13 17 7 9 1019.6 - 0.0
27/08:00pm 23.7 20.6 7.3 35 8.6 SSE 13 17 7 9 1019.6 - 0.0
27/07:30pm 24.4 21.4 7.5 34 8.9 S 13 17 7 9 1019.3 - 0.0
27/07:00pm 25.1 22.0 7.3 32 9.3 SSE 13 17 7 9 1019.0 - 0.0
27/06:30pm 26.3 23.2 7.4 30 10.0 SSE 13 17 7 9 1018.7 - 0.0
27/06:00pm 27.3 24.9 7.2 28 10.7 SSE 9 13 5 7 1018.4 1018.4 0.0
27/05:30pm 29.3 26.9 7.2 25 11.9 SE 9 15 5 8 1018.0 - 0.0
27/05:00pm 30.9 27.8 7.4 23 12.8 SE 13 24 7 13 1017.8 - 0.0
27/04:30pm 31.7 27.7 6.7 21 13.5 SE 17 24 9 13 1017.5 - 0.0
27/04:00pm 32.3 28.8 7.2 21 13.7 ESE 15 26 8 14 1017.5 - 0.0
27/03:30pm 32.1 28.6 7.0 21 13.7 SE 15 28 8 15 1017.6 - 0.0
27/03:00pm 32.2 28.5 7.8 22 13.4 ESE 17 28 9 15 1017.9 1017.9 0.0
27/02:30pm 32.3 28.8 7.2 21 13.7 SE 15 24 8 13 1017.9 - 0.0
27/02:00pm 31.7 27.5 7.4 22 13.3 SE 19 28 10 15 1018.2 - 0.0
27/01:30pm 31.2 27.0 7.6 23 12.9 ESE 19 30 10 16 1018.6 - 0.0
27/01:00pm 30.8 26.4 7.3 23 12.8 ESE 20 41 11 22 1019.0 - 0.0
27/12:30pm 30.3 25.9 7.5 24 12.4 ESE 20 35 11 19 1019.5 - 0.0
27/12:00pm 29.5 24.9 8.0 26 11.7 ESE 22 39 12 21 1020.2 1020.2 0.0
27/11:30am 28.3 23.0 7.0 26 11.4 ESE 24 39 13 21 1020.8 - 0.0
27/11:00am 27.1 21.4 6.5 27 10.8 ESE 26 46 14 25 1021.4 - 0.0
27/10:47am 26.4 20.4 6.9 29 10.3 ESE 28 46 15 25 1021.5 - 0.0
27/10:30am 26.4 20.7 6.9 29 10.3 ESE 26 41 14 22 1021.7 - 0.0
27/10:00am 25.2 19.2 6.9 31 9.6 ESE 28 43 15 23 1022.2 - 0.0
27/09:30am 23.8 17.3 6.6 33 8.9 ESE 30 48 16 26 1022.4 - 0.0
27/09:24am 23.8 17.7 6.6 33 8.9 ESE 28 46 15 25 1022.5 - 0.0
27/09:00am 22.6 15.7 6.4 35 8.2 ESE 32 48 17 26 1022.7 1022.7 0.0
27/08:41am 22.0 15.9 6.7 37 7.8 ESE 28 46 15 25 1022.7 - 0.0
27/08:30am 21.4 15.3 6.5 38 7.5 ESE 28 44 15 24 1022.7 - 0.0
27/08:00am 19.9 14.5 6.3 41 6.8 SE 24 37 13 20 1022.6 - 0.0
27/07:30am 18.9 14.3 6.4 44 6.2 SE 20 35 11 19 1022.5 - 0.0
27/07:00am 17.9 13.2 6.1 46 5.8 SE 20 30 11 16 1022.3 - 0.0
27/06:30am 17.3 12.7 5.6 46 5.7 SE 19 26 10 14 1022.1 - 0.0
27/06:00am 17.6 13.1 5.9 46 5.7 SE 19 28 10 15 1021.8 1021.8 0.0
27/05:30am 17.8 13.2 5.7 45 5.9 SE 19 28 10 15 1021.5 - 0.0
27/05:00am 18.0 13.5 5.9 45 5.9 SE 19 28 10 15 1021.4 - 0.0
27/04:30am 18.4 13.9 5.9 44 6.1 SE 19 30 10 16 1021.2 - 0.0
27/04:00am 18.7 14.0 5.9 43 6.3 SE 20 30 11 16 1021.0 - 0.0
27/03:30am 19.0 14.4 5.8 42 6.5 SE 19 32 10 17 1021.0 - 0.0
27/03:00am 19.4 14.8 5.8 41 6.7 SE 19 28 10 15 1020.9 1020.9 0.0
27/02:30am 19.8 15.6 5.8 40 6.9 SE 17 32 9 17 1021.0 - 0.0
27/02:00am 20.1 16.0 6.1 40 7.0 SE 17 28 9 15 1021.1 - 0.0
27/01:30am 20.3 15.8 6.3 40 7.0 SE 19 28 10 15 1021.2 - 0.0
27/01:00am 20.5 16.1 6.4 40 7.1 SE 19 30 10 16 1021.3 - 0.0
27/12:30am 20.7 16.1 6.6 40 7.1 SE 20 32 11 17 1021.5 - 0.0
27/12:00am 20.8 16.5 7.1 41 7.0 SE 19 32 10 17 1021.7 1021.7 0.0
 
Date/Time
WST
Temp
°C
App
Temp
°C
Dew
Point
Rel
Hum
%
Delta-T
°C
Wind Press
QNH
hPa
Press
MSL
hPa
Rain
since 9 am
mm
Dir
 
Spd
km/h
Gust
km/h
Spd
kts
Gust
kts
26/11:30pm 20.9 16.7 7.5 42 6.9 SE 19 26 10 14 1021.8 - 0.0
26/11:00pm 21.0 17.3 8.0 43 6.8 SE 17 26 9 14 1022.0 - 0.0
26/10:30pm 21.1 17.9 8.4 44 6.7 SSE 15 22 8 12 1022.0 - 0.0
26/10:00pm 21.7 18.4 8.2 42 7.1 SE 15 24 8 13 1021.9 - 0.0
26/09:30pm 22.4 19.2 8.5 41 7.4 SSE 15 26 8 14 1021.9 - 0.0
26/09:00pm 22.6 19.4 8.3 40 7.5 SE 15 22 8 12 1021.8 1021.8 0.0
26/08:30pm 22.6 19.7 8.3 40 7.5 SSE 13 20 7 11 1021.6 - 0.0
26/08:00pm 22.5 20.0 8.2 40 7.5 SSE 11 17 6 9 1021.5 - 0.0
26/07:30pm 23.1 20.6 8.4 39 7.8 SE 11 17 6 9 1021.0 - 0.0
26/07:00pm 23.4 20.9 8.3 38 8.0 SSE 11 17 6 9 1020.7 - 0.0
26/06:30pm 24.4 21.6 8.4 36 8.5 SE 13 20 7 11 1020.2 - 0.0
26/06:00pm 25.3 22.1 8.3 34 9.1 SE 15 24 8 13 1019.9 1019.9 0.0
26/05:30pm 26.1 22.6 8.6 33 9.5 SE 17 26 9 14 1019.5 - 0.0
26/05:00pm 27.2 23.7 8.6 31 10.1 SE 17 28 9 15 1019.2 - 0.0
26/04:30pm 28.0 23.8 8.3 29 10.7 SE 20 33 11 18 1018.9 - 0.0
26/04:00pm 28.1 23.6 8.4 29 10.7 SE 22 35 12 19 1018.8 - 0.0
26/03:30pm 28.2 23.3 8.5 29 10.8 SE 24 37 13 20 1018.7 - 0.0
26/03:00pm 28.6 24.4 8.3 28 11.1 SE 20 30 11 16 1018.8 1018.8 0.0
26/02:30pm 27.9 22.9 8.2 29 10.7 SE 24 39 13 21 1019.0 - 0.0
26/02:00pm 28.5 23.5 8.2 28 11.1 SE 24 37 13 20 1019.2 - 0.0
26/01:30pm 28.0 23.8 8.3 29 10.7 SE 20 35 11 19 1019.1 - 0.0
26/01:00pm 27.7 22.9 9.0 31 10.3 SE 24 39 13 21 1019.4 - 0.0
26/12:30pm 27.6 23.2 9.0 31 10.2 ESE 22 37 12 20 1019.8 - 0.0
26/12:00pm 26.6 22.2 9.0 33 9.6 SE 22 37 12 20 1020.5 1020.5 0.0
26/11:30am 25.3 20.5 8.7 35 9.0 SE 24 39 13 21 1021.0 - 0.0
26/11:00am 24.1 18.8 8.5 37 8.3 SE 26 43 14 23 1021.6 - 0.0
26/10:30am 24.1 19.3 8.9 38 8.2 ESE 24 39 13 21 1022.1 - 0.0
26/10:00am 22.1 16.8 8.6 42 7.1 SE 26 43 14 23 1022.7 - 0.0
26/09:30am 22.3 17.2 9.1 43 7.1 SE 26 43 14 23 1022.8 - 0.0
26/09:00am 21.6 17.3 9.5 46 6.5 SE 22 39 12 21 1022.9 1022.9 0.0
26/08:30am 20.2 15.4 8.8 48 6.0 SE 24 41 13 22 1022.8 - 0.0
26/08:00am 19.3 15.9 9.2 52 5.3 SE 17 30 9 16 1022.4 - 0.0
26/07:30am 18.3 14.2 8.8 54 4.9 SE 20 32 11 17 1022.1 - 0.0
26/07:00am 17.0 13.1 8.7 58 4.3 SE 19 28 10 15 1021.7 - 0.0
26/06:30am 16.6 12.7 8.6 59 4.1 SE 19 30 10 16 1021.6 - 0.0
26/06:00am 16.7 12.7 8.1 57 4.3 SE 19 28 10 15 1021.4 1021.4 0.0
26/05:30am 16.8 12.2 8.0 56 4.5 SE 22 33 12 18 1020.7 - 0.0
26/05:00am 16.9 12.6 7.8 55 4.6 SE 20 35 11 19 1020.7 - 0.0
26/04:30am 17.0 12.7 7.9 55 4.6 SE 20 32 11 17 1020.5 - 0.0
26/04:00am 17.1 13.0 8.0 55 4.6 SE 19 32 10 17 1020.3 - 0.0
26/03:30am 17.1 13.5 8.3 56 4.5 SE 17 30 9 16 1020.1 - 0.0
26/03:00am 17.2 13.0 8.4 56 4.5 SE 20 37 11 20 1019.9 1019.9 0.0
26/02:30am 17.4 12.8 8.3 55 4.7 SE 22 35 12 19 1020.1 - 0.0
26/02:00am 17.7 13.6 8.0 53 4.9 SE 19 35 10 19 1020.2 - 0.0
26/01:30am 18.0 13.9 7.7 51 5.2 SSE 19 32 10 17 1020.3 - 0.0
26/01:00am 18.6 14.3 7.7 49 5.5 SSE 20 33 11 18 1020.5 - 0.0
26/12:30am 19.0 13.8 7.4 47 5.9 SSE 24 39 13 21 1020.5 - 0.0
26/12:00am 19.5 14.3 7.3 45 6.2 SSE 24 41 13 22 1020.5 1020.5 0.0
 
Date/Time
WST
Temp
°C
App
Temp
°C
Dew
Point
Rel
Hum
%
Delta-T
°C
Wind Press
QNH
hPa
Press
MSL
hPa
Rain
since 9 am
mm
Dir
 
Spd
km/h
Gust
km/h
Spd
kts
Gust
kts
25/11:30pm 20.3 14.4 7.3 43 6.6 SSE 28 41 15 22 1020.4 - 0.0
25/11:00pm 21.1 15.8 6.6 39 7.3 SSE 24 39 13 21 1020.4 - 0.0
25/10:30pm 21.5 16.7 5.8 36 7.9 SSE 20 28 11 15 1020.3 - 0.0
25/10:00pm 22.0 17.2 5.4 34 8.3 SSE 20 33 11 18 1020.2 - 0.0
25/09:30pm 21.3 16.8 6.0 37 7.7 S 19 28 10 15 1020.0 - 0.0
25/09:00pm 20.9 17.3 6.8 40 7.1 S 15 20 8 11 1019.8 1019.8 0.0
25/08:30pm 21.8 18.6 6.9 38 7.6 SSE 13 17 7 9 1019.6 - 0.0
25/08:00pm 21.8 19.1 7.2 39 7.5 SSE 11 15 6 8 1019.4 - 0.0
25/07:30pm 22.6 19.1 7.2 37 8.0 SSE 15 19 8 10 1019.0 - 0.0
25/07:00pm 23.3 20.1 7.0 35 8.4 SSE 13 17 7 9 1018.7 - 0.0
25/06:30pm 23.8 21.0 7.0 34 8.7 SSE 11 15 6 8 1018.0 - 0.0
25/06:00pm 25.0 23.1 7.6 33 9.2 SE 7 11 4 6 1017.4 1017.4 0.0
25/05:30pm 26.8 24.2 7.8 30 10.2 SE 11 20 6 11 1016.9 - 0.0
25/05:00pm 28.0 24.4 8.3 29 10.7 SE 17 28 9 15 1016.6 - 0.0
25/04:30pm 28.7 24.7 8.4 28 11.1 SSE 19 32 10 17 1016.3 - 0.0

Other Formats:

Comma delimited format used in spreadsheet applications
http://www.bom.gov.au/fwo/IDW60801/IDW60801.94200.axf

JavaScript Object Notation format (JSON) in row-major order
http://www.bom.gov.au/fwo/IDW60801/IDW60801.94200.json